sensor_id;sensor_type;location;lat;lon;timestamp;pressure;altitude;pressure_sealevel;temperature;humidity
53932;BME280;39844;52.496;13.482;2024-03-07T00:01:53;102434.19;;;6.51;100.00
53932;BME280;39844;52.496;13.482;2024-03-07T00:04:18;102442.03;;;6.51;100.00
53932;BME280;39844;52.496;13.482;2024-03-07T00:06:44;102432.41;;;6.50;100.00
53932;BME280;39844;52.496;13.482;2024-03-07T00:09:09;102437.66;;;6.51;100.00
53932;BME280;39844;52.496;13.482;2024-03-07T00:11:34;102435.00;;;6.50;100.00
53932;BME280;39844;52.496;13.482;2024-03-07T00:13:59;102443.66;;;6.49;100.00
53932;BME280;39844;52.496;13.482;2024-03-07T00:16:25;102435.00;;;6.50;100.00
53932;BME280;39844;52.496;13.482;2024-03-07T00:18:50;102436.81;;;6.51;100.00
53932;BME280;39844;52.496;13.482;2024-03-07T00:21:17;102436.81;;;6.51;100.00
53932;BME280;39844;52.496;13.482;2024-03-07T00:23:43;102433.22;;;6.49;100.00
53932;BME280;39844;52.496;13.482;2024-03-07T00:26:08;102440.22;;;6.50;100.00
53932;BME280;39844;52.496;13.482;2024-03-07T00:28:33;102441.13;;;6.50;100.00
53932;BME280;39844;52.496;13.482;2024-03-07T00:30:59;102445.44;;;6.50;100.00
53932;BME280;39844;52.496;13.482;2024-03-07T00:33:24;102436.81;;;6.51;100.00
53932;BME280;39844;52.496;13.482;2024-03-07T00:35:49;102435.00;;;6.50;100.00
53932;BME280;39844;52.496;13.482;2024-03-07T00:38:14;102436.81;;;6.51;100.00
53932;BME280;39844;52.496;13.482;2024-03-07T00:40:40;102442.03;;;6.51;100.00
53932;BME280;39844;52.496;13.482;2024-03-07T00:43:05;102430.69;;;6.50;100.00
53932;BME280;39844;52.496;13.482;2024-03-07T00:45:30;102442.03;;;6.51;100.00
53932;BME280;39844;52.496;13.482;2024-03-07T00:47:56;102440.22;;;6.50;100.00
53932;BME280;39844;52.496;13.482;2024-03-07T00:50:21;102442.03;;;6.51;100.00
53932;BME280;39844;52.496;13.482;2024-03-07T00:52:46;102435.00;;;6.50;100.00
53932;BME280;39844;52.496;13.482;2024-03-07T00:55:11;102433.22;;;6.49;100.00
53932;BME280;39844;52.496;13.482;2024-03-07T00:57:37;102435.78;;;6.47;100.00
53932;BME280;39844;52.496;13.482;2024-03-07T01:00:02;102428.75;;;6.46;100.00
53932;BME280;39844;52.496;13.482;2024-03-07T01:02:28;102430.56;;;6.47;100.00
53932;BME280;39844;52.496;13.482;2024-03-07T01:04:53;102430.50;;;6.46;100.00
53932;BME280;39844;52.496;13.482;2024-03-07T01:07:18;102429.53;;;6.44;100.00
53932;BME280;39844;52.496;13.482;2024-03-07T01:09:44;102420.91;;;6.45;100.00
53932;BME280;39844;52.496;13.482;2024-03-07T01:12:09;102422.56;;;6.43;100.00
53932;BME280;39844;52.496;13.482;2024-03-07T01:14:34;102431.28;;;6.43;100.00
53932;BME280;39844;52.496;13.482;2024-03-07T01:16:59;102425.09;;;6.41;100.00
53932;BME280;39844;52.496;13.482;2024-03-07T01:19:25;102425.03;;;6.40;100.00
53932;BME280;39844;52.496;13.482;2024-03-07T01:21:50;102429.31;;;6.38;100.00
53932;BME280;39844;52.496;13.482;2024-03-07T01:24:15;102424.78;;;6.33;100.00
53932;BME280;39844;52.496;13.482;2024-03-07T01:26:41;102422.03;;;6.30;100.00
53932;BME280;39844;52.496;13.482;2024-03-07T01:29:06;102425.50;;;6.29;100.00
53932;BME280;39844;52.496;13.482;2024-03-07T01:31:33;102435.84;;;6.28;100.00
53932;BME280;39844;52.496;13.482;2024-03-07T01:33:59;102429.69;;;6.26;100.00
53932;BME280;39844;52.496;13.482;2024-03-07T01:36:24;102425.22;;;6.23;100.00
53932;BME280;39844;52.496;13.482;2024-03-07T01:38:49;102433.00;;;6.22;100.00
53932;BME280;39844;52.496;13.482;2024-03-07T01:41:14;102433.69;;;6.18;100.00
53932;BME280;39844;52.496;13.482;2024-03-07T01:43:41;102428.38;;;6.15;100.00
53932;BME280;39844;52.496;13.482;2024-03-07T01:46:06;102434.41;;;6.14;100.00
53932;BME280;39844;52.496;13.482;2024-03-07T01:48:32;102426.53;;;6.12;100.00
53932;BME280;39844;52.496;13.482;2024-03-07T01:50:58;102427.34;;;6.11;100.00
53932;BME280;39844;52.496;13.482;2024-03-07T01:53:25;102428.16;;;6.10;100.00
53932;BME280;39844;52.496;13.482;2024-03-07T01:55:52;102431.63;;;6.09;100.00
53932;BME280;39844;52.496;13.482;2024-03-07T01:58:18;102426.22;;;6.05;100.00
53932;BME280;39844;52.496;13.482;2024-03-07T02:00:43;102426.09;;;6.02;100.00
53932;BME280;39844;52.496;13.482;2024-03-07T02:03:09;102423.22;;;5.96;100.00
53932;BME280;39844;52.496;13.482;2024-03-07T02:05:34;102419.53;;;5.91;100.00
53932;BME280;39844;52.496;13.482;2024-03-07T02:08:00;102421.03;;;5.86;100.00
53932;BME280;39844;52.496;13.482;2024-03-07T02:10:25;102418.22;;;5.81;100.00
53932;BME280;39844;52.496;13.482;2024-03-07T02:12:50;102421.53;;;5.77;100.00
53932;BME280;39844;52.496;13.482;2024-03-07T02:15:16;102413.50;;;5.72;100.00
53932;BME280;39844;52.496;13.482;2024-03-07T02:17:41;102411.59;;;5.68;100.00
53932;BME280;39844;52.496;13.482;2024-03-07T02:20:07;102415.78;;;5.65;100.00
53932;BME280;39844;52.496;13.482;2024-03-07T02:22:32;102417.28;;;5.60;100.00
53932;BME280;39844;52.496;13.482;2024-03-07T02:24:57;102414.53;;;5.57;100.00
53932;BME280;39844;52.496;13.482;2024-03-07T02:27:23;102415.38;;;5.56;100.00
53932;BME280;39844;52.496;13.482;2024-03-07T02:29:48;102410.94;;;5.53;100.00
53932;BME280;39844;52.496;13.482;2024-03-07T02:32:13;102410.81;;;5.50;100.00
53932;BME280;39844;52.496;13.482;2024-03-07T02:34:39;102401.13;;;5.48;100.00
53932;BME280;39844;52.496;13.482;2024-03-07T02:37:04;102410.59;;;5.46;100.00
53932;BME280;39844;52.496;13.482;2024-03-07T02:39:29;102405.25;;;5.43;100.00
53932;BME280;39844;52.496;13.482;2024-03-07T02:41:54;102401.56;;;5.38;100.00
53932;BME280;39844;52.496;13.482;2024-03-07T02:44:20;102401.41;;;5.35;100.00
53932;BME280;39844;52.496;13.482;2024-03-07T02:46:45;102402.13;;;5.31;100.00
53932;BME280;39844;52.496;13.482;2024-03-07T02:49:11;102403.78;;;5.29;100.00
53932;BME280;39844;52.496;13.482;2024-03-07T02:51:36;102400.19;;;5.27;100.00
53932;BME280;39844;52.496;13.482;2024-03-07T02:54:01;102402.69;;;5.24;100.00
53932;BME280;39844;52.496;13.482;2024-03-07T02:56:27;102406.03;;;5.21;100.00
53932;BME280;39844;52.496;13.482;2024-03-07T02:58:52;102396.25;;;5.16;100.00
53932;BME280;39844;52.496;13.482;2024-03-07T03:01:17;102403.06;;;5.13;100.00
53932;BME280;39844;52.496;13.482;2024-03-07T03:03:43;102413.38;;;5.10;100.00
53932;BME280;39844;52.496;13.482;2024-03-07T03:06:09;102407.91;;;5.06;100.00
53932;BME280;39844;52.496;13.482;2024-03-07T03:08:34;102403.47;;;5.03;100.00
53932;BME280;39844;52.496;13.482;2024-03-07T03:11:00;102404.16;;;4.99;100.00
53932;BME280;39844;52.496;13.482;2024-03-07T03:13:26;102404.91;;;4.97;100.00
53932;BME280;39844;52.496;13.482;2024-03-07T03:15:51;102409.06;;;4.93;100.00
53932;BME280;39844;52.496;13.482;2024-03-07T03:18:16;102417.63;;;4.91;100.00
53932;BME280;39844;52.496;13.482;2024-03-07T03:20:42;102412.22;;;4.86;100.00
53932;BME280;39844;52.496;13.482;2024-03-07T03:23:07;102412.09;;;4.83;100.00
53932;BME280;39844;52.496;13.482;2024-03-07T03:25:32;102415.44;;;4.81;100.00
53932;BME280;39844;52.496;13.482;2024-03-07T03:27:57;102410.03;;;4.76;100.00
53932;BME280;39844;52.496;13.482;2024-03-07T03:30:23;102422.06;;;4.74;100.00
53932;BME280;39844;52.496;13.482;2024-03-07T03:32:48;102421.91;;;4.71;100.00
53932;BME280;39844;52.496;13.482;2024-03-07T03:35:14;102419.25;;;4.70;100.00
53932;BME280;39844;52.496;13.482;2024-03-07T03:37:41;102426.84;;;4.65;100.00
53932;BME280;39844;52.496;13.482;2024-03-07T03:40:08;102421.50;;;4.62;100.00
53932;BME280;39844;52.496;13.482;2024-03-07T03:42:33;102427.31;;;4.57;100.00
53932;BME280;39844;52.496;13.482;2024-03-07T03:44:58;102428.84;;;4.53;100.00
53932;BME280;39844;52.496;13.482;2024-03-07T03:47:24;102426.94;;;4.49;100.00
53932;BME280;39844;52.496;13.482;2024-03-07T03:49:49;102431.09;;;4.45;100.00
53932;BME280;39844;52.496;13.482;2024-03-07T03:52:14;102423.97;;;4.41;100.00
53932;BME280;39844;52.496;13.482;2024-03-07T03:54:40;102431.63;;;4.38;100.00
53932;BME280;39844;52.496;13.482;2024-03-07T03:57:05;102431.56;;;4.37;100.00
53932;BME280;39844;52.496;13.482;2024-03-07T03:59:30;102429.69;;;4.34;100.00
53932;BME280;39844;52.496;13.482;2024-03-07T04:01:55;102434.81;;;4.33;100.00
53932;BME280;39844;52.496;13.482;2024-03-07T04:04:21;102434.59;;;4.28;100.00
53932;BME280;39844;52.496;13.482;2024-03-07T04:06:46;102441.50;;;4.28;100.00
53932;BME280;39844;52.496;13.482;2024-03-07T04:09:11;102437.88;;;4.24;100.00
53932;BME280;39844;52.496;13.482;2024-03-07T04:11:37;102436.81;;;4.21;100.00
53932;BME280;39844;52.496;13.482;2024-03-07T04:14:02;102444.44;;;4.18;100.00
53932;BME280;39844;52.496;13.482;2024-03-07T04:16:27;102445.28;;;4.17;100.00
53932;BME280;39844;52.496;13.482;2024-03-07T04:18:52;102434.75;;;4.14;100.00
53932;BME280;39844;52.496;13.482;2024-03-07T04:21:18;102438.13;;;4.13;100.00
53932;BME280;39844;52.496;13.482;2024-03-07T04:23:43;102437.97;;;4.10;100.00
53932;BME280;39844;52.496;13.482;2024-03-07T04:26:08;102439.63;;;4.08;100.00
53932;BME280;39844;52.496;13.482;2024-03-07T04:28:34;102430.88;;;4.06;100.00
53932;BME280;39844;52.496;13.482;2024-03-07T04:30:59;102430.72;;;4.03;100.00
53932;BME280;39844;52.496;13.482;2024-03-07T04:33:24;102433.25;;;4.01;100.00
53932;BME280;39844;52.496;13.482;2024-03-07T04:35:50;102438.28;;;3.98;100.00
53932;BME280;39844;52.496;13.482;2024-03-07T04:38:15;102439.06;;;3.97;100.00
53932;BME280;39844;52.496;13.482;2024-03-07T04:40:43;102445.91;;;3.95;100.00
53932;BME280;39844;52.496;13.482;2024-03-07T04:43:09;102444.84;;;3.92;100.00
53932;BME280;39844;52.496;13.482;2024-03-07T04:45:34;102443.88;;;3.90;100.00
53932;BME280;39844;52.496;13.482;2024-03-07T04:47:59;102437.72;;;3.88;100.00
53932;BME280;39844;52.496;13.482;2024-03-07T04:50:25;102443.72;;;3.87;100.00
53932;BME280;39844;52.496;13.482;2024-03-07T04:52:50;102441.81;;;3.82;100.00
53932;BME280;39844;52.496;13.482;2024-03-07T04:55:15;102438.25;;;3.80;100.00
53932;BME280;39844;52.496;13.482;2024-03-07T04:57:41;102441.56;;;3.78;100.00
53932;BME280;39844;52.496;13.482;2024-03-07T05:00:11;102440.53;;;3.74;100.00
53932;BME280;39844;52.496;13.482;2024-03-07T05:02:37;102456.03;;;3.73;100.00
53932;BME280;39844;52.496;13.482;2024-03-07T05:05:02;102452.47;;;3.71;100.00
53932;BME280;39844;52.496;13.482;2024-03-07T05:07:28;102445.31;;;3.67;100.00
53932;BME280;39844;52.496;13.482;2024-03-07T05:09:53;102454.81;;;3.66;100.00
53932;BME280;39844;52.496;13.482;2024-03-07T05:12:18;102452.94;;;3.64;100.00
53932;BME280;39844;52.496;13.482;2024-03-07T05:14:43;102451.25;;;3.64;100.00
53932;BME280;39844;52.496;13.482;2024-03-07T05:17:09;102461.56;;;3.63;100.00
53932;BME280;39844;52.496;13.482;2024-03-07T05:19:35;102459.78;;;3.62;100.00
53932;BME280;39844;52.496;13.482;2024-03-07T05:22:01;102462.19;;;3.59;100.00
53932;BME280;39844;52.496;13.482;2024-03-07T05:24:27;102470.72;;;3.56;100.00
53932;BME280;39844;52.496;13.482;2024-03-07T05:26:52;102468.97;;;3.55;100.00
53932;BME280;39844;52.496;13.482;2024-03-07T05:29:18;102474.94;;;3.54;100.00
53932;BME280;39844;52.496;13.482;2024-03-07T05:31:43;102473.19;;;3.53;100.00
53932;BME280;39844;52.496;13.482;2024-03-07T05:34:08;102468.78;;;3.52;100.00
53932;BME280;39844;52.496;13.482;2024-03-07T05:36:37;102463.53;;;3.51;100.00
53932;BME280;39844;52.496;13.482;2024-03-07T05:39:02;102470.31;;;3.49;100.00
53932;BME280;39844;52.496;13.482;2024-03-07T05:41:28;102482.50;;;3.50;100.00
53932;BME280;39844;52.496;13.482;2024-03-07T05:43:53;102473.66;;;3.46;100.00
53932;BME280;39844;52.496;13.482;2024-03-07T05:46:19;102487.47;;;3.45;100.00
53932;BME280;39844;52.496;13.482;2024-03-07T05:48:44;102482.16;;;3.44;100.00
53932;BME280;39844;52.496;13.482;2024-03-07T05:51:09;102486.47;;;3.43;100.00
53932;BME280;39844;52.496;13.482;2024-03-07T05:53:34;102490.69;;;3.41;100.00
53932;BME280;39844;52.496;13.482;2024-03-07T05:56:00;102496.59;;;3.39;100.00
53932;BME280;39844;52.496;13.482;2024-03-07T05:58:25;102489.56;;;3.36;100.00
53932;BME280;39844;52.496;13.482;2024-03-07T06:00:50;102492.88;;;3.34;100.00
53932;BME280;39844;52.496;13.482;2024-03-07T06:03:17;102497.09;;;3.32;100.00
53932;BME280;39844;52.496;13.482;2024-03-07T06:05:42;102497.03;;;3.30;100.00
53932;BME280;39844;52.496;13.482;2024-03-07T06:08:07;102497.75;;;3.28;100.00
53932;BME280;39844;52.496;13.482;2024-03-07T06:10:32;102491.66;;;3.27;100.00
53932;BME280;39844;52.496;13.482;2024-03-07T06:12:58;102500.34;;;3.28;100.00
53932;BME280;39844;52.496;13.482;2024-03-07T06:15:23;102497.75;;;3.28;100.00
53932;BME280;39844;52.496;13.482;2024-03-07T06:17:48;102489.97;;;3.28;100.00
53932;BME280;39844;52.496;13.482;2024-03-07T06:20:14;102496.84;;;3.27;100.00
53932;BME280;39844;52.496;13.482;2024-03-07T06:22:39;102499.44;;;3.27;100.00
53932;BME280;39844;52.496;13.482;2024-03-07T06:25:04;102507.25;;;3.27;100.00
53932;BME280;39844;52.496;13.482;2024-03-07T06:27:30;102501.16;;;3.27;100.00
53932;BME280;39844;52.496;13.482;2024-03-07T06:29:55;102515.81;;;3.26;100.00
53932;BME280;39844;52.496;13.482;2024-03-07T06:32:20;102512.44;;;3.27;100.00
53932;BME280;39844;52.496;13.482;2024-03-07T06:34:46;102505.38;;;3.25;100.00
53932;BME280;39844;52.496;13.482;2024-03-07T06:37:11;102509.84;;;3.27;100.00
53932;BME280;39844;52.496;13.482;2024-03-07T06:39:36;102501.22;;;3.28;100.00
53932;BME280;39844;52.496;13.482;2024-03-07T06:42:02;102501.31;;;3.30;100.00
53932;BME280;39844;52.496;13.482;2024-03-07T06:44:27;102516.97;;;3.31;100.00
53932;BME280;39844;52.496;13.482;2024-03-07T06:46:52;102509.16;;;3.31;100.00
53932;BME280;39844;52.496;13.482;2024-03-07T06:49:18;102510.25;;;3.35;99.58
53932;BME280;39844;52.496;13.482;2024-03-07T06:51:43;102513.75;;;3.35;99.25
53932;BME280;39844;52.496;13.482;2024-03-07T06:54:08;102508.69;;;3.38;98.56
53932;BME280;39844;52.496;13.482;2024-03-07T06:56:33;102516.56;;;3.40;98.25
53932;BME280;39844;52.496;13.482;2024-03-07T06:58:59;102511.44;;;3.41;97.29
53932;BME280;39844;52.496;13.482;2024-03-07T07:01:24;102517.59;;;3.43;96.67
53932;BME280;39844;52.496;13.482;2024-03-07T07:03:49;102522.81;;;3.43;96.05
53932;BME280;39844;52.496;13.482;2024-03-07T07:06:15;102519.56;;;3.47;96.08
53932;BME280;39844;52.496;13.482;2024-03-07T07:08:40;102519.75;;;3.50;95.85
53932;BME280;39844;52.496;13.482;2024-03-07T07:11:06;102520.53;;;3.49;94.40
53932;BME280;39844;52.496;13.482;2024-03-07T07:13:31;102524.09;;;3.51;94.30
53932;BME280;39844;52.496;13.482;2024-03-07T07:15:57;102525.91;;;3.52;93.72
53932;BME280;39844;52.496;13.482;2024-03-07T07:18:22;102530.44;;;3.56;94.02
53932;BME280;39844;52.496;13.482;2024-03-07T07:20:47;102529.63;;;3.57;92.67
53932;BME280;39844;52.496;13.482;2024-03-07T07:23:13;102522.91;;;3.61;92.81
53932;BME280;39844;52.496;13.482;2024-03-07T07:25:38;102529.16;;;3.64;92.50
53932;BME280;39844;52.496;13.482;2024-03-07T07:28:03;102525.75;;;3.65;92.21
53932;BME280;39844;52.496;13.482;2024-03-07T07:30:29;102531.13;;;3.68;91.25
53932;BME280;39844;52.496;13.482;2024-03-07T07:32:55;102533.78;;;3.70;90.45
53932;BME280;39844;52.496;13.482;2024-03-07T07:35:20;102526.94;;;3.72;89.63
53932;BME280;39844;52.496;13.482;2024-03-07T07:37:47;102529.47;;;3.70;88.97
53932;BME280;39844;52.496;13.482;2024-03-07T07:40:16;102527.06;;;3.73;88.98
53932;BME280;39844;52.496;13.482;2024-03-07T07:42:42;102526.22;;;3.74;88.91
53932;BME280;39844;52.496;13.482;2024-03-07T07:45:10;102531.75;;;3.80;89.40
53932;BME280;39844;52.496;13.482;2024-03-07T07:47:49;102531.25;;;3.88;88.83
53932;BME280;39844;52.496;13.482;2024-03-07T07:50:16;102532.03;;;3.87;87.68
53932;BME280;39844;52.496;13.482;2024-03-07T07:52:43;102530.50;;;3.90;87.91
53932;BME280;39844;52.496;13.482;2024-03-07T07:55:09;102526.28;;;3.92;86.67
53932;BME280;39844;52.496;13.482;2024-03-07T07:57:34;102521.09;;;3.92;86.39
53932;BME280;39844;52.496;13.482;2024-03-07T07:59:59;102517.84;;;3.96;86.56
53932;BME280;39844;52.496;13.482;2024-03-07T08:02:25;102530.16;;;4.00;86.27
53932;BME280;39844;52.496;13.482;2024-03-07T08:04:50;102521.75;;;4.04;86.47
53932;BME280;39844;52.496;13.482;2024-03-07T08:07:15;102528.88;;;4.08;85.58
53932;BME280;39844;52.496;13.482;2024-03-07T08:09:43;102528.06;;;4.09;85.11
53932;BME280;39844;52.496;13.482;2024-03-07T08:12:08;102530.78;;;4.12;85.08
53932;BME280;39844;52.496;13.482;2024-03-07T08:14:33;102522.41;;;4.18;85.19
53932;BME280;39844;52.496;13.482;2024-03-07T08:16:59;102537.44;;;4.23;84.93
53932;BME280;39844;52.496;13.482;2024-03-07T08:19:24;102528.16;;;4.28;84.60
53932;BME280;39844;52.496;13.482;2024-03-07T08:21:49;102522.38;;;4.34;83.93
53932;BME280;39844;52.496;13.482;2024-03-07T08:24:14;102516.34;;;4.35;82.82
53932;BME280;39844;52.496;13.482;2024-03-07T08:26:40;102528.75;;;4.40;82.85
53932;BME280;39844;52.496;13.482;2024-03-07T08:29:05;102524.69;;;4.45;82.98
53932;BME280;39844;52.496;13.482;2024-03-07T08:31:30;102540.50;;;4.50;81.64
53932;BME280;39844;52.496;13.482;2024-03-07T08:33:56;102530.25;;;4.53;81.91
53932;BME280;39844;52.496;13.482;2024-03-07T08:36:21;102541.72;;;4.57;81.91
53932;BME280;39844;52.496;13.482;2024-03-07T08:38:46;102540.19;;;4.60;81.57
53932;BME280;39844;52.496;13.482;2024-03-07T08:41:12;102536.94;;;4.66;81.32
53932;BME280;39844;52.496;13.482;2024-03-07T08:43:37;102542.31;;;4.69;80.94
53932;BME280;39844;52.496;13.482;2024-03-07T08:46:02;102538.16;;;4.72;80.14
53932;BME280;39844;52.496;13.482;2024-03-07T08:48:28;102540.09;;;4.76;79.78
53932;BME280;39844;52.496;13.482;2024-03-07T08:50:53;102537.78;;;4.82;79.11
53932;BME280;39844;52.496;13.482;2024-03-07T08:53:18;102531.09;;;4.87;79.20
53932;BME280;39844;52.496;13.482;2024-03-07T08:55:43;102540.00;;;4.92;78.13
53932;BME280;39844;52.496;13.482;2024-03-07T08:58:09;102532.34;;;4.95;77.46
53932;BME280;39844;52.496;13.482;2024-03-07T09:00:34;102535.97;;;4.99;77.35
53932;BME280;39844;52.496;13.482;2024-03-07T09:03:00;102530.13;;;5.03;76.92
53932;BME280;39844;52.496;13.482;2024-03-07T09:05:26;102526.09;;;5.09;75.62
53932;BME280;39844;52.496;13.482;2024-03-07T09:07:52;102529.00;;;5.16;75.12
53932;BME280;39844;52.496;13.482;2024-03-07T09:10:18;102531.84;;;5.22;73.66
53932;BME280;39844;52.496;13.482;2024-03-07T09:12:44;102534.69;;;5.26;72.96
53932;BME280;39844;52.496;13.482;2024-03-07T09:15:10;102521.13;;;5.33;73.06
53932;BME280;39844;52.496;13.482;2024-03-07T09:17:36;102528.41;;;5.40;72.76
53932;BME280;39844;52.496;13.482;2024-03-07T09:20:01;102522.63;;;5.47;72.82
53932;BME280;39844;52.496;13.482;2024-03-07T09:22:27;102516.69;;;5.50;70.97
53932;BME280;39844;52.496;13.482;2024-03-07T09:24:52;102524.63;;;5.53;70.28
53932;BME280;39844;52.496;13.482;2024-03-07T09:27:17;102518.72;;;5.57;70.20
53932;BME280;39844;52.496;13.482;2024-03-07T09:29:42;102518.22;;;5.64;69.37
53932;BME280;39844;52.496;13.482;2024-03-07T09:32:08;102528.06;;;5.71;69.89
53932;BME280;39844;52.496;13.482;2024-03-07T09:34:33;102508.31;;;5.76;69.32
53932;BME280;39844;52.496;13.482;2024-03-07T09:36:58;102512.16;;;5.84;68.29
53932;BME280;39844;52.496;13.482;2024-03-07T09:39:24;102501.91;;;5.87;66.35
53932;BME280;39844;52.496;13.482;2024-03-07T09:41:49;102513.44;;;5.92;66.03
53932;BME280;39844;52.496;13.482;2024-03-07T09:44:15;102510.25;;;5.99;64.90
53932;BME280;39844;52.496;13.482;2024-03-07T09:46:44;102509.69;;;6.06;64.42
53932;BME280;39844;52.496;13.482;2024-03-07T09:49:12;102505.59;;;6.13;63.37
53932;BME280;39844;52.496;13.482;2024-03-07T09:51:38;102502.47;;;6.20;63.72
53932;BME280;39844;52.496;13.482;2024-03-07T09:54:04;102509.63;;;6.25;62.08
53932;BME280;39844;52.496;13.482;2024-03-07T09:56:30;102502.97;;;6.32;62.07
53932;BME280;39844;52.496;13.482;2024-03-07T09:58:57;102498.97;;;6.40;62.54
53932;BME280;39844;52.496;13.482;2024-03-07T10:01:25;102506.25;;;6.49;61.54
53932;BME280;39844;52.496;13.482;2024-03-07T10:03:59;102497.66;;;6.51;60.23
53932;BME280;39844;52.496;13.482;2024-03-07T10:06:25;102494.06;;;6.48;59.04
53932;BME280;39844;52.496;13.482;2024-03-07T10:08:51;102500.09;;;6.47;59.63
53932;BME280;39844;52.496;13.482;2024-03-07T10:11:16;102488.22;;;6.53;59.17
53932;BME280;39844;52.496;13.482;2024-03-07T10:13:41;102492.75;;;6.59;58.01
53932;BME280;39844;52.496;13.482;2024-03-07T10:16:07;102487.75;;;6.63;57.37
53932;BME280;39844;52.496;13.482;2024-03-07T10:18:33;102492.97;;;6.63;57.38
53932;BME280;39844;52.496;13.482;2024-03-07T10:20:58;102486.00;;;6.64;56.37
53932;BME280;39844;52.496;13.482;2024-03-07T10:23:24;102489.59;;;6.66;55.79
53932;BME280;39844;52.496;13.482;2024-03-07T10:25:52;102487.97;;;6.69;56.44
53932;BME280;39844;52.496;13.482;2024-03-07T10:28:20;102485.44;;;6.71;55.72
53932;BME280;39844;52.496;13.482;2024-03-07T10:30:45;102483.78;;;6.73;56.92
53932;BME280;39844;52.496;13.482;2024-03-07T10:33:11;102481.41;;;6.79;56.58
53932;BME280;39844;52.496;13.482;2024-03-07T10:35:37;102480.53;;;6.78;56.33
53932;BME280;39844;52.496;13.482;2024-03-07T10:38:02;102481.41;;;6.79;55.57
53932;BME280;39844;52.496;13.482;2024-03-07T10:40:28;102484.09;;;6.80;54.95
53932;BME280;39844;52.496;13.482;2024-03-07T10:42:56;102487.00;;;6.88;55.15
53932;BME280;39844;52.496;13.482;2024-03-07T10:45:22;102474.06;;;6.91;54.69
53932;BME280;39844;52.496;13.482;2024-03-07T10:47:53;102462.78;;;6.92;55.03
53932;BME280;39844;52.496;13.482;2024-03-07T10:53:32;102465.59;;;6.96;55.48
53932;BME280;39844;52.496;13.482;2024-03-07T10:56:17;102463.97;;;7.00;55.04
53932;BME280;39844;52.496;13.482;2024-03-07T10:58:58;102460.66;;;7.04;55.24
53932;BME280;39844;52.496;13.482;2024-03-07T11:01:30;102465.28;;;7.11;55.31
53932;BME280;39844;52.496;13.482;2024-03-07T11:03:56;102462.84;;;7.16;55.23
53932;BME280;39844;52.496;13.482;2024-03-07T11:06:24;102457.72;;;7.19;56.16
53932;BME280;39844;52.496;13.482;2024-03-07T11:08:50;102457.91;;;7.23;54.89
53932;BME280;39844;52.496;13.482;2024-03-07T11:11:17;102457.16;;;7.27;55.75
53932;BME280;39844;52.496;13.482;2024-03-07T11:13:43;102457.16;;;7.27;54.18
53932;BME280;39844;52.496;13.482;2024-03-07T11:16:09;102457.78;;;7.20;53.94
53932;BME280;39844;52.496;13.482;2024-03-07T11:18:35;102457.63;;;7.16;53.68
53932;BME280;39844;52.496;13.482;2024-03-07T11:21:00;102456.72;;;7.15;53.16
53932;BME280;39844;52.496;13.482;2024-03-07T11:23:32;102454.22;;;7.18;53.30
53932;BME280;39844;52.496;13.482;2024-03-07T11:28:29;102437.13;;;7.26;55.06
53932;BME280;39844;52.496;13.482;2024-03-07T11:30:54;102432.72;;;7.25;53.19
53932;BME280;39844;52.496;13.482;2024-03-07T11:33:31;102430.09;;;7.25;53.29
53932;BME280;39844;52.496;13.482;2024-03-07T11:35:56;102433.56;;;7.24;54.36
53932;BME280;39844;52.496;13.482;2024-03-07T11:38:31;102429.97;;;7.22;54.81
53932;BME280;39844;52.496;13.482;2024-03-07T11:40:59;102433.66;;;7.27;55.04
53932;BME280;39844;52.496;13.482;2024-03-07T11:43:26;102424.09;;;7.28;54.72
53932;BME280;39844;52.496;13.482;2024-03-07T11:45:52;102426.88;;;7.32;54.51
53932;BME280;39844;52.496;13.482;2024-03-07T11:48:17;102430.38;;;7.33;54.88
53932;BME280;39844;52.496;13.482;2024-03-07T11:50:43;102425.44;;;7.40;55.48
53932;BME280;39844;52.496;13.482;2024-03-07T11:53:09;102427.38;;;7.46;54.62
53932;BME280;39844;52.496;13.482;2024-03-07T11:55:35;102419.69;;;7.50;53.92
53932;BME280;39844;52.496;13.482;2024-03-07T11:58:00;102414.47;;;7.50;53.74
53932;BME280;39844;52.496;13.482;2024-03-07T12:00:26;102417.44;;;7.59;54.46
53932;BME280;39844;52.496;13.482;2024-03-07T12:02:54;102404.78;;;7.72;53.74
53932;BME280;39844;52.496;13.482;2024-03-07T12:05:19;102414.34;;;7.96;54.81
53932;BME280;39844;52.496;13.482;2024-03-07T12:07:44;102411.81;;;8.24;53.58
53932;BME280;39844;52.496;13.482;2024-03-07T12:10:10;102418.00;;;8.53;51.51
53932;BME280;39844;52.496;13.482;2024-03-07T12:12:36;102389.59;;;8.94;51.53
53932;BME280;39844;52.496;13.482;2024-03-07T12:15:01;102381.41;;;9.13;49.92
53932;BME280;39844;52.496;13.482;2024-03-07T12:17:27;102388.34;;;9.42;48.40
53932;BME280;39844;52.496;13.482;2024-03-07T12:19:52;102386.47;;;9.69;48.24
53932;BME280;39844;52.496;13.482;2024-03-07T12:22:21;102376.91;;;10.05;49.07
53932;BME280;39844;52.496;13.482;2024-03-07T12:24:46;102364.44;;;10.31;45.42
53932;BME280;39844;52.496;13.482;2024-03-07T12:27:12;102369.31;;;10.52;44.92
53932;BME280;39844;52.496;13.482;2024-03-07T12:29:41;102373.00;;;10.60;45.31
53932;BME280;39844;52.496;13.482;2024-03-07T12:32:08;102370.59;;;10.70;44.17
53932;BME280;39844;52.496;13.482;2024-03-07T12:34:36;102368.50;;;10.95;44.65
53932;BME280;39844;52.496;13.482;2024-03-07T12:37:03;102367.91;;;11.09;43.41
53932;BME280;39844;52.496;13.482;2024-03-07T12:39:31;102366.91;;;11.46;44.50
53932;BME280;39844;52.496;13.482;2024-03-07T12:41:57;102364.44;;;11.55;40.97
53932;BME280;39844;52.496;13.482;2024-03-07T12:44:22;102356.41;;;11.48;41.38